Terminal Aerodrome Forecast
Issued by NWS

Home | Current Version | Previous Version | Text Only | Print | Product List | Glossary On
Versions: 1 2 3 4 5 6 7 8 9 10 11 12 13
350
FTUS42 TJSJ 011724
TAFIST
TAF
TIST 011724Z 0118/0218 12015G23KT P6SM VCSH SCT030
     FM012200 08010KT P6SM FEW025
     FM021500 11015G20KT P6SM VCSH SCT030 SCT040=

USA.gov is the U.S. government's official web portal to all federal, state and local government web resources and services.